createdAt,value
2018-10-18T00:01:12.710Z,11.30
2018-10-18T00:03:41.008Z,11.20
2018-10-18T00:06:09.343Z,11.20
2018-10-18T00:08:37.895Z,11.10
2018-10-18T00:11:06.390Z,11.00
2018-10-18T00:13:34.960Z,11.00
2018-10-18T00:16:03.324Z,11.00
2018-10-18T00:18:31.646Z,11.00
2018-10-18T00:20:59.990Z,11.00
2018-10-18T00:23:28.287Z,10.90
2018-10-18T00:25:56.767Z,10.80
2018-10-18T00:28:25.398Z,10.80
2018-10-18T00:30:53.786Z,10.80
2018-10-18T00:33:22.137Z,10.80
2018-10-18T00:35:50.547Z,10.80
2018-10-18T00:38:18.962Z,10.80
2018-10-18T00:40:47.319Z,10.80
2018-10-18T00:43:16.096Z,10.80
2018-10-18T00:45:44.465Z,10.80
2018-10-18T00:48:12.953Z,10.80
2018-10-18T00:50:41.190Z,10.70
2018-10-18T00:53:09.539Z,10.80
2018-10-18T00:55:37.899Z,10.70
2018-10-18T00:58:06.622Z,10.60
2018-10-18T01:00:35.051Z,10.60
2018-10-18T01:03:03.756Z,10.70
2018-10-18T01:05:32.865Z,10.70
2018-10-18T01:08:01.275Z,10.60
2018-10-18T01:10:29.576Z,10.50
2018-10-18T01:12:57.903Z,10.60
2018-10-18T01:15:26.255Z,10.60
2018-10-18T01:17:54.888Z,10.50
2018-10-18T01:20:23.483Z,10.70
2018-10-18T01:22:51.828Z,10.90
2018-10-18T01:25:20.134Z,10.70
2018-10-18T01:27:48.539Z,10.70
2018-10-18T01:30:17.027Z,10.60
2018-10-18T01:32:45.365Z,10.60
2018-10-18T01:35:13.956Z,10.40
2018-10-18T01:37:42.548Z,10.30
2018-10-18T01:40:15.992Z,10.40
2018-10-18T01:42:50.944Z,10.50
2018-10-18T01:45:19.304Z,10.60
2018-10-18T01:47:47.634Z,10.60
2018-10-18T01:50:16.103Z,10.40
2018-10-18T01:52:44.378Z,10.40
2018-10-18T01:55:12.748Z,10.40
2018-10-18T01:57:41.391Z,10.60
2018-10-18T02:00:10.085Z,10.50
2018-10-18T02:02:38.459Z,10.50
2018-10-18T02:05:06.787Z,10.50
2018-10-18T02:07:35.137Z,10.40
2018-10-18T02:10:03.478Z,10.50
2018-10-18T02:12:31.804Z,10.40
2018-10-18T02:15:00.118Z,10.20
2018-10-18T02:17:29.005Z,10.20
2018-10-18T02:19:57.301Z,10.30
2018-10-18T02:22:25.616Z,10.30
2018-10-18T02:24:53.913Z,10.20
2018-10-18T02:27:22.245Z,10.00
2018-10-18T02:29:50.570Z,10.00
2018-10-18T02:32:18.901Z,10.10
2018-10-18T02:34:47.189Z,10.20
2018-10-18T02:37:15.608Z,10.30
2018-10-18T02:39:43.949Z,10.30
2018-10-18T02:42:12.339Z,10.20
2018-10-18T02:44:40.604Z,10.20
2018-10-18T02:47:08.940Z,10.00
2018-10-18T02:49:37.276Z,10.10
2018-10-18T02:52:05.677Z,10.20
2018-10-18T02:54:40.716Z,10.20
2018-10-18T02:57:09.022Z,10.20
2018-10-18T02:59:37.402Z,10.30
2018-10-18T03:02:07.052Z,10.20
2018-10-18T03:04:35.808Z,10.20
2018-10-18T03:07:04.451Z,10.10
2018-10-18T03:09:32.805Z,10.10
2018-10-18T03:12:01.272Z,9.90
2018-10-18T03:14:29.560Z,9.80
2018-10-18T03:16:58.219Z,9.90
2018-10-18T03:19:26.698Z,9.90
2018-10-18T03:21:55.060Z,9.80
2018-10-18T03:24:23.368Z,9.80
2018-10-18T03:26:51.746Z,9.80
2018-10-18T03:29:20.425Z,9.90
2018-10-18T03:31:49.108Z,10.00
2018-10-18T03:34:17.612Z,10.00
2018-10-18T03:36:45.917Z,9.90
2018-10-18T03:39:14.285Z,9.90
2018-10-18T03:41:42.626Z,9.80
2018-10-18T03:44:10.959Z,9.90
2018-10-18T03:46:39.314Z,9.90
2018-10-18T03:49:07.641Z,9.70
2018-10-18T03:51:36.244Z,9.80
2018-10-18T03:54:04.706Z,9.60
2018-10-18T03:56:33.004Z,9.60
2018-10-18T03:59:01.325Z,9.80
2018-10-18T04:01:29.603Z,9.70
2018-10-18T04:06:32.602Z,9.80
2018-10-18T04:09:01.305Z,9.80
2018-10-18T04:11:29.676Z,9.80
2018-10-18T04:13:58.169Z,9.60
2018-10-18T04:16:26.497Z,9.70
2018-10-18T04:18:54.884Z,9.50
2018-10-18T04:21:23.240Z,9.30
2018-10-18T04:23:52.051Z,9.40
2018-10-18T04:26:20.446Z,9.30
2018-10-18T04:28:48.807Z,9.40
2018-10-18T04:31:17.167Z,9.50
2018-10-18T04:33:45.495Z,9.40
2018-10-18T04:36:13.892Z,9.20
2018-10-18T04:38:42.176Z,9.10
2018-10-18T04:41:10.537Z,9.20
2018-10-18T04:43:38.871Z,9.20
2018-10-18T04:46:07.531Z,9.30
2018-10-18T04:48:36.025Z,9.30
2018-10-18T04:51:04.558Z,9.40
2018-10-18T04:53:32.901Z,9.40
2018-10-18T04:56:01.274Z,9.40
2018-10-18T04:58:29.602Z,9.50
2018-10-18T05:00:57.991Z,9.40
2018-10-18T05:03:26.391Z,9.30
2018-10-18T05:06:00.180Z,9.10
2018-10-18T05:08:29.026Z,9.10
2018-10-18T05:10:57.540Z,9.10
2018-10-18T05:13:25.994Z,9.10
2018-10-18T05:15:54.390Z,9.10
2018-10-18T05:18:23.199Z,9.00
2018-10-18T05:20:51.504Z,8.80
2018-10-18T05:23:19.933Z,8.80
2018-10-18T05:25:49.073Z,8.80
2018-10-18T05:28:18.471Z,8.90
2018-10-18T05:30:46.848Z,8.70
2018-10-18T05:33:15.220Z,8.80
2018-10-18T05:35:43.539Z,8.80
2018-10-18T05:38:11.912Z,8.70
2018-10-18T05:40:40.372Z,8.70
2018-10-18T05:43:08.959Z,8.80
2018-10-18T05:45:37.338Z,8.70
2018-10-18T05:48:05.897Z,8.60
2018-10-18T05:50:34.253Z,8.60
2018-10-18T05:53:02.704Z,8.60
2018-10-18T05:55:33.331Z,8.50
2018-10-18T05:58:02.175Z,8.60
2018-10-18T06:00:31.131Z,8.70
2018-10-18T06:02:59.906Z,8.70
2018-10-18T06:05:28.846Z,8.80
2018-10-18T06:07:57.680Z,8.70
2018-10-18T06:10:37.574Z,8.70
2018-10-18T06:13:07.406Z,8.70
2018-10-18T06:15:36.253Z,8.60
2018-10-18T06:18:05.398Z,8.60
2018-10-18T06:20:34.196Z,8.50
2018-10-18T06:23:03.037Z,8.50
2018-10-18T06:25:32.368Z,8.70
2018-10-18T06:28:02.363Z,8.70
2018-10-18T06:30:31.238Z,8.70
2018-10-18T06:33:00.135Z,8.70
2018-10-18T06:35:29.096Z,8.60
2018-10-18T06:37:57.953Z,8.50
2018-10-18T06:40:26.743Z,8.60
2018-10-18T06:42:55.782Z,8.60
2018-10-18T06:45:24.588Z,8.70
2018-10-18T06:47:53.606Z,8.80
2018-10-18T06:50:22.331Z,8.80
2018-10-18T06:52:52.430Z,8.80
2018-10-18T06:55:21.695Z,8.80
2018-10-18T06:57:50.571Z,8.80
2018-10-18T07:00:23.400Z,8.80
2018-10-18T07:02:53.218Z,9.00
2018-10-18T07:05:22.300Z,9.00
2018-10-18T07:07:51.131Z,9.00
2018-10-18T07:10:20.392Z,8.80
2018-10-18T07:12:49.572Z,8.80
2018-10-18T07:15:18.380Z,8.90
2018-10-18T07:17:47.952Z,9.00
2018-10-18T07:20:16.737Z,9.10
2018-10-18T07:22:45.624Z,9.20
2018-10-18T07:25:15.722Z,9.30
2018-10-18T07:27:45.046Z,9.40
2018-10-18T07:30:14.964Z,9.40
2018-10-18T07:32:43.680Z,9.40
2018-10-18T07:35:13.621Z,9.50
2018-10-18T07:37:42.628Z,9.60
2018-10-18T07:40:15.297Z,9.60
2018-10-18T07:42:44.140Z,9.70
2018-10-18T07:45:14.770Z,9.80
2018-10-18T07:47:45.261Z,10.00
2018-10-18T07:50:14.180Z,10.20
2018-10-18T07:52:43.037Z,10.40
2018-10-18T07:55:12.041Z,10.50
2018-10-18T07:57:40.849Z,10.50
2018-10-18T08:00:12.794Z,10.60
2018-10-18T08:02:42.009Z,10.50
2018-10-18T08:05:11.313Z,10.60
2018-10-18T08:07:40.437Z,10.70
2018-10-18T08:10:11.760Z,10.70
2018-10-18T08:12:40.856Z,10.70
2018-10-18T08:15:10.888Z,10.80
2018-10-18T08:17:40.015Z,10.90
2018-10-18T08:20:09.581Z,11.00
2018-10-18T08:22:38.858Z,11.00
2018-10-18T08:25:07.694Z,11.10
2018-10-18T08:27:36.816Z,11.20
2018-10-18T08:30:08.109Z,11.20
2018-10-18T08:32:37.620Z,11.30
2018-10-18T08:35:07.449Z,11.40
2018-10-18T08:37:36.441Z,11.40
2018-10-18T08:40:05.852Z,11.50
2018-10-18T08:42:34.817Z,11.50
2018-10-18T08:45:03.713Z,11.60
2018-10-18T08:47:32.551Z,11.60
2018-10-18T08:50:02.497Z,11.60
2018-10-18T08:52:31.407Z,11.70
2018-10-18T08:55:00.328Z,11.70
2018-10-18T08:57:30.407Z,11.80
2018-10-18T08:59:59.292Z,11.90
2018-10-18T09:02:28.855Z,11.90
2018-10-18T09:04:57.735Z,12.00
2018-10-18T09:07:26.639Z,12.10
2018-10-18T09:09:55.528Z,12.10
2018-10-18T09:12:24.454Z,12.20
2018-10-18T09:14:53.458Z,12.20
2018-10-18T09:17:22.963Z,12.60
2018-10-18T09:19:51.915Z,12.70
2018-10-18T09:22:20.833Z,12.80
2018-10-18T09:24:50.637Z,12.70
2018-10-18T09:27:19.471Z,12.80
2018-10-18T09:29:48.344Z,12.80
2018-10-18T09:32:18.199Z,12.90
2018-10-18T09:34:47.332Z,12.90
2018-10-18T09:37:16.374Z,13.00
2018-10-18T09:39:45.495Z,13.10
2018-10-18T09:42:14.317Z,13.30
2018-10-18T09:44:43.374Z,13.40
2018-10-18T09:47:12.273Z,13.70
2018-10-18T09:49:41.098Z,13.90
2018-10-18T09:52:09.966Z,14.40
2018-10-18T09:54:39.401Z,14.20
2018-10-18T09:57:08.760Z,14.50
2018-10-18T09:59:37.933Z,14.40
2018-10-18T10:02:11.994Z,14.50
2018-10-18T10:04:40.904Z,14.50
2018-10-18T10:07:10.510Z,14.60
2018-10-18T10:09:40.808Z,14.70
2018-10-18T10:12:09.703Z,14.70
2018-10-18T10:14:39.167Z,15.50
2018-10-18T10:17:08.503Z,15.50
2018-10-18T10:19:37.322Z,15.50
2018-10-18T10:22:06.202Z,15.70
2018-10-18T10:24:35.834Z,15.60
2018-10-18T10:27:05.316Z,15.50
2018-10-18T10:29:34.966Z,15.40
2018-10-18T10:32:03.857Z,15.50
2018-10-18T10:34:34.186Z,15.90
2018-10-18T10:37:03.055Z,16.00
2018-10-18T10:39:33.392Z,15.90
2018-10-18T10:42:02.365Z,16.10
2018-10-18T10:44:31.063Z,16.20
2018-10-18T10:47:04.328Z,16.30
2018-10-18T10:49:35.145Z,16.40
2018-10-18T10:52:04.165Z,16.60
2018-10-18T10:54:32.944Z,16.70
2018-10-18T10:57:03.559Z,16.80
2018-10-18T10:59:32.630Z,16.90
2018-10-18T11:02:01.604Z,16.80
2018-10-18T11:04:30.471Z,17.20
2018-10-18T11:06:59.370Z,17.50
2018-10-18T11:09:28.414Z,17.70
2018-10-18T11:11:57.268Z,17.50
2018-10-18T11:14:26.642Z,17.70
2018-10-18T11:16:56.296Z,17.60
2018-10-18T11:19:25.307Z,17.90
2018-10-18T11:21:54.491Z,18.00
2018-10-18T11:24:23.368Z,18.10
2018-10-18T11:26:52.178Z,17.80
2018-10-18T11:29:21.016Z,17.70
2018-10-18T11:31:50.136Z,17.80
2018-10-18T11:34:19.827Z,17.80
2018-10-18T11:36:49.013Z,18.10
2018-10-18T11:39:17.863Z,18.00
2018-10-18T11:41:46.884Z,18.40
2018-10-18T11:44:16.487Z,18.40
2018-10-18T11:46:45.881Z,18.30
2018-10-18T11:49:14.875Z,18.40
2018-10-18T11:51:44.718Z,18.50
2018-10-18T11:54:13.497Z,18.50
2018-10-18T11:56:43.076Z,18.30
2018-10-18T11:59:12.315Z,18.40
2018-10-18T12:01:41.095Z,18.40
2018-10-18T12:04:09.943Z,18.30
2018-10-18T12:06:39.687Z,18.30
2018-10-18T12:09:10.815Z,18.50
2018-10-18T12:11:39.665Z,18.50
2018-10-18T12:14:09.209Z,18.60
2018-10-18T12:16:38.299Z,18.70
2018-10-18T12:19:08.212Z,18.80
2018-10-18T12:21:37.694Z,18.80
2018-10-18T12:24:07.111Z,18.80
2018-10-18T12:26:36.164Z,19.00
2018-10-18T12:29:05.493Z,19.00
2018-10-18T12:31:34.613Z,19.00
2018-10-18T12:34:03.978Z,19.00
2018-10-18T12:36:33.963Z,19.10
2018-10-18T12:39:03.034Z,19.10
2018-10-18T12:41:32.022Z,19.20
2018-10-18T12:44:00.923Z,19.30
2018-10-18T12:46:29.976Z,19.30
2018-10-18T12:48:59.431Z,19.40
2018-10-18T12:51:28.776Z,19.60
2018-10-18T12:53:57.901Z,19.50
2018-10-18T12:56:27.537Z,19.50
2018-10-18T12:58:56.336Z,19.60
2018-10-18T13:01:25.137Z,19.60
2018-10-18T13:03:54.069Z,19.60
2018-10-18T13:06:23.055Z,19.70
2018-10-18T13:08:51.910Z,19.80
2018-10-18T13:11:20.891Z,19.80
2018-10-18T13:13:49.921Z,19.80
2018-10-18T13:16:18.792Z,19.90
2018-10-18T13:18:47.750Z,20.00
2018-10-18T13:21:16.658Z,19.90
2018-10-18T13:23:45.530Z,20.00
2018-10-18T13:26:14.492Z,20.00
2018-10-18T13:28:43.536Z,19.90
2018-10-18T13:31:12.503Z,20.00
2018-10-18T13:33:41.643Z,20.00
2018-10-18T13:36:10.513Z,20.00
2018-10-18T13:38:39.766Z,20.00
2018-10-18T13:41:08.653Z,20.10
2018-10-18T13:43:37.922Z,20.20
2018-10-18T13:46:06.936Z,20.20
2018-10-18T13:48:35.883Z,20.20
2018-10-18T13:51:05.157Z,20.20
2018-10-18T13:53:40.464Z,20.20
2018-10-18T13:56:10.639Z,20.30
2018-10-18T13:58:40.207Z,20.20
2018-10-18T14:01:09.290Z,20.30
2018-10-18T14:03:38.543Z,20.40
2018-10-18T14:06:07.724Z,20.40
2018-10-18T14:08:36.984Z,20.40
2018-10-18T14:11:05.895Z,20.40
2018-10-18T14:13:34.760Z,20.50
2018-10-18T14:16:04.162Z,20.40
2018-10-18T14:18:33.674Z,20.40
2018-10-18T14:21:02.713Z,20.30
2018-10-18T14:23:31.618Z,20.40
2018-10-18T14:26:00.837Z,20.30
2018-10-18T14:28:29.720Z,20.40
2018-10-18T14:30:59.667Z,20.40
2018-10-18T14:33:29.283Z,20.40
2018-10-18T14:35:58.984Z,20.30
2018-10-18T14:38:28.058Z,20.40
2018-10-18T14:40:57.027Z,20.30
2018-10-18T14:43:26.089Z,20.30
2018-10-18T14:45:55.255Z,20.20
2018-10-18T14:48:24.299Z,20.30
2018-10-18T14:50:53.166Z,20.30
2018-10-18T14:53:21.973Z,20.30
2018-10-18T14:55:51.557Z,20.20
2018-10-18T14:58:20.403Z,20.20
2018-10-18T15:00:49.693Z,20.30
2018-10-18T15:03:18.558Z,20.30
2018-10-18T15:05:47.566Z,20.30
2018-10-18T15:08:16.651Z,20.30
2018-10-18T15:10:45.583Z,20.20
2018-10-18T15:13:14.883Z,20.20
2018-10-18T15:15:43.751Z,20.10
2018-10-18T15:18:12.908Z,20.10
2018-10-18T15:20:41.761Z,20.10
2018-10-18T15:23:11.685Z,20.10
2018-10-18T15:25:43.525Z,20.10
2018-10-18T15:28:12.815Z,20.00
2018-10-18T15:30:42.478Z,19.90
2018-10-18T15:33:12.345Z,19.80
2018-10-18T15:35:41.694Z,19.80
2018-10-18T15:38:11.763Z,19.80
2018-10-18T15:40:40.536Z,19.80
2018-10-18T15:43:09.664Z,19.60
2018-10-18T15:45:38.735Z,19.60
2018-10-18T15:48:08.016Z,19.50
2018-10-18T15:50:36.862Z,19.50
2018-10-18T15:53:06.099Z,19.40
2018-10-18T15:55:34.975Z,19.30
2018-10-18T15:58:05.291Z,19.20
2018-10-18T16:00:34.258Z,19.10
2018-10-18T16:03:03.467Z,19.10
2018-10-18T16:05:32.525Z,18.90
2018-10-18T16:08:01.569Z,18.90
2018-10-18T16:10:30.711Z,18.80
2018-10-18T16:12:59.551Z,18.80
2018-10-18T16:15:29.169Z,18.70
2018-10-18T16:17:58.848Z,18.70
2018-10-18T16:20:27.677Z,18.60
2018-10-18T16:22:56.539Z,18.50
2018-10-18T16:25:26.140Z,18.40
2018-10-18T16:27:55.116Z,18.40
2018-10-18T16:30:23.942Z,18.30
2018-10-18T16:32:53.047Z,18.30
2018-10-18T16:35:22.306Z,18.20
2018-10-18T16:37:51.581Z,18.10
2018-10-18T16:40:20.329Z,18.10
2018-10-18T16:42:50.147Z,18.00
2018-10-18T16:45:19.713Z,18.00
2018-10-18T16:47:48.623Z,18.00
2018-10-18T16:50:18.003Z,18.00
2018-10-18T16:52:46.916Z,18.10
2018-10-18T16:58:07.248Z,18.10
2018-10-18T17:00:36.491Z,18.10
2018-10-18T17:03:05.507Z,18.10
2018-10-18T17:05:34.806Z,18.10
2018-10-18T17:08:03.873Z,18.10
2018-10-18T17:10:32.608Z,18.00
2018-10-18T17:13:02.032Z,18.00
2018-10-18T17:15:30.830Z,17.90
2018-10-18T17:17:59.804Z,17.90
2018-10-18T17:20:29.065Z,17.80
2018-10-18T17:22:58.103Z,17.80
2018-10-18T17:25:26.870Z,17.70
2018-10-18T17:27:57.185Z,17.70
2018-10-18T17:30:26.356Z,17.60
2018-10-18T17:32:55.396Z,17.60
2018-10-18T17:35:24.602Z,17.50
2018-10-18T17:37:53.595Z,17.50
2018-10-18T17:40:22.775Z,17.40
2018-10-18T17:42:52.813Z,17.40
2018-10-18T17:45:21.802Z,17.40
2018-10-18T17:47:50.823Z,17.40
2018-10-18T17:50:19.720Z,17.30
2018-10-18T17:52:48.582Z,17.30
2018-10-18T17:55:18.165Z,17.30
2018-10-18T17:57:47.300Z,17.20
2018-10-18T18:00:16.363Z,17.20
2018-10-18T18:02:45.806Z,17.10
2018-10-18T18:05:15.264Z,17.10
2018-10-18T18:07:44.053Z,17.10
2018-10-18T18:10:14.566Z,17.10
2018-10-18T18:12:43.457Z,17.10
2018-10-18T18:15:12.503Z,17.00
2018-10-18T18:17:41.303Z,16.90
2018-10-18T18:20:11.495Z,16.90
2018-10-18T18:22:40.569Z,16.90
2018-10-18T18:25:10.570Z,16.80
2018-10-18T18:27:39.569Z,16.80
2018-10-18T18:30:10.604Z,16.80
2018-10-18T18:32:39.720Z,16.70
2018-10-18T18:35:09.465Z,16.70
2018-10-18T18:37:38.410Z,16.70
2018-10-18T18:40:08.425Z,16.70
2018-10-18T18:42:37.437Z,16.60
2018-10-18T18:45:11.545Z,16.60
2018-10-18T18:47:40.306Z,16.60
2018-10-18T18:50:09.469Z,16.60
2018-10-18T18:52:38.196Z,16.50
2018-10-18T18:55:08.780Z,16.40
2018-10-18T18:57:37.685Z,16.40
2018-10-18T19:00:07.762Z,16.40
2018-10-18T19:02:36.701Z,16.40
2018-10-18T19:05:06.270Z,16.40
2018-10-18T19:07:35.269Z,16.40
2018-10-18T19:10:04.567Z,16.30
2018-10-18T19:12:33.501Z,16.30
2018-10-18T19:15:02.317Z,16.30
2018-10-18T19:17:31.046Z,16.30
2018-10-18T19:20:00.956Z,16.20
2018-10-18T19:22:29.916Z,16.20
2018-10-18T19:24:59.208Z,16.20
2018-10-18T19:27:28.102Z,16.10
2018-10-18T19:29:57.096Z,16.10
2018-10-18T19:32:25.905Z,16.10
2018-10-18T19:34:55.162Z,16.00
2018-10-18T19:37:24.171Z,16.00
2018-10-18T19:39:52.952Z,16.00
2018-10-18T19:42:21.851Z,15.90
2018-10-18T19:44:50.788Z,15.90
2018-10-18T19:47:20.109Z,15.90
2018-10-18T19:49:49.033Z,15.90
2018-10-18T19:52:17.952Z,15.80
2018-10-18T19:54:46.943Z,15.80
2018-10-18T19:57:15.761Z,15.80
2018-10-18T19:59:44.853Z,15.80
2018-10-18T20:02:13.932Z,15.70
2018-10-18T20:04:43.497Z,15.70
2018-10-18T20:07:12.433Z,15.70
2018-10-18T20:09:41.414Z,15.70
2018-10-18T20:12:10.208Z,15.70
2018-10-18T20:14:39.013Z,15.60
2018-10-18T20:17:08.486Z,15.70
2018-10-18T20:19:37.571Z,15.60
2018-10-18T20:22:10.858Z,15.50
2018-10-18T20:24:39.735Z,15.60
2018-10-18T20:27:09.139Z,15.60
2018-10-18T20:29:37.919Z,15.60
2018-10-18T20:32:06.644Z,15.50
2018-10-18T20:34:35.813Z,15.50
2018-10-18T20:37:05.222Z,15.50
2018-10-18T20:39:34.210Z,15.40
2018-10-18T20:42:02.986Z,15.50
2018-10-18T20:44:31.909Z,15.40
2018-10-18T20:47:00.828Z,15.30
2018-10-18T20:49:29.716Z,15.30
2018-10-18T20:51:59.319Z,15.30
2018-10-18T20:54:28.598Z,15.30
2018-10-18T20:56:57.712Z,15.30
2018-10-18T20:59:26.781Z,15.30
2018-10-18T21:01:55.959Z,15.10
2018-10-18T21:04:24.728Z,15.10
2018-10-18T21:06:53.669Z,15.20
2018-10-18T21:09:22.817Z,15.00
2018-10-18T21:11:52.565Z,15.10
2018-10-18T21:14:22.088Z,14.90
2018-10-18T21:16:50.814Z,15.00
2018-10-18T21:19:20.110Z,15.10
2018-10-18T21:21:48.907Z,15.00
2018-10-18T21:24:18.311Z,14.90
2018-10-18T21:26:47.234Z,14.90
2018-10-18T21:29:17.041Z,14.90
2018-10-18T21:31:46.020Z,14.80
2018-10-18T21:34:15.020Z,14.80
2018-10-18T21:36:44.372Z,14.90
2018-10-18T21:39:13.318Z,14.90
2018-10-18T21:41:42.170Z,14.90
2018-10-18T21:44:10.989Z,14.80
2018-10-18T21:46:40.141Z,14.70
2018-10-18T21:49:08.939Z,14.60
2018-10-18T21:51:38.248Z,14.50
2018-10-18T21:54:07.247Z,14.70
2018-10-18T21:56:36.108Z,14.60
2018-10-18T21:59:05.146Z,14.60
2018-10-18T22:01:34.022Z,14.60
2018-10-18T22:04:02.855Z,14.60
2018-10-18T22:06:31.946Z,14.50
2018-10-18T22:09:00.887Z,14.50
2018-10-18T22:11:29.576Z,14.40
2018-10-18T22:13:59.482Z,14.40
2018-10-18T22:16:28.419Z,14.30
2018-10-18T22:18:57.390Z,14.30
2018-10-18T22:21:26.331Z,14.40
2018-10-18T22:23:55.681Z,14.30
2018-10-18T22:26:24.466Z,14.30
2018-10-18T22:28:53.630Z,14.30
2018-10-18T22:31:22.624Z,14.20
2018-10-18T22:33:51.407Z,14.20
2018-10-18T22:36:20.495Z,14.10
2018-10-18T22:38:49.421Z,14.10
2018-10-18T22:41:19.406Z,14.10
2018-10-18T22:43:49.178Z,14.10
2018-10-18T22:46:18.246Z,14.10
2018-10-18T22:48:46.997Z,14.00
2018-10-18T22:51:16.133Z,14.00
2018-10-18T22:53:44.785Z,14.00
2018-10-18T22:56:13.598Z,13.90
2018-10-18T22:58:42.607Z,14.00
2018-10-18T23:01:12.122Z,14.10
2018-10-18T23:03:41.041Z,14.00
2018-10-18T23:06:09.837Z,13.90
2018-10-18T23:08:38.894Z,14.00
2018-10-18T23:11:07.787Z,13.80
2018-10-18T23:13:37.274Z,13.90
2018-10-18T23:16:06.758Z,13.90
2018-10-18T23:18:36.979Z,14.00
2018-10-18T23:21:06.678Z,14.00
2018-10-18T23:23:36.659Z,13.90
2018-10-18T23:26:05.430Z,14.00
2018-10-18T23:28:34.307Z,13.90
2018-10-18T23:31:03.411Z,13.80
2018-10-18T23:33:33.210Z,13.70
2018-10-18T23:36:02.275Z,13.70
2018-10-18T23:38:31.306Z,13.60
2018-10-18T23:41:00.165Z,13.60
2018-10-18T23:43:28.938Z,13.50
2018-10-18T23:45:57.762Z,13.40
2018-10-18T23:48:26.630Z,13.50
2018-10-18T23:50:55.439Z,13.50
2018-10-18T23:53:24.205Z,13.50
2018-10-18T23:55:53.386Z,13.50
2018-10-18T23:58:22.178Z,13.60
